Terminal Aerodrome Forecast
Issued by NWS

Home | Current Version | Previous Version | Text Only | Print | Product List | Glossary On
Versions: 1 2 3 4 5 6 7 8 9 10 11 12 13 14 15 16 17 18 19 20 21 22 23 24 25 26 27 28 29 30 31 32 33 34 35 36 37
000
FTUS43 KDMX 172358 CCA
TAFOTM
TAF COR
KOTM 172358Z 1800/1824 VRB03KT 2SM BR OVC004
     FM181200 23006KT 6SM BR SCT025 BKN040
     FM181500 23011KT P6SM FEW040=

USA.gov is the U.S. government's official web portal to all federal, state and local government web resources and services.